sensor_id;sensor_type;location;lat;lon;timestamp;P1;durP1;ratioP1;P2;durP2;ratioP2
49183;SDS011;35021;49.214;12.270;2022-12-24T00:00:10;3.20;;;0.47;;
49183;SDS011;35021;49.214;12.270;2022-12-24T00:02:37;0.30;;;0.20;;
49183;SDS011;35021;49.214;12.270;2022-12-24T00:05:04;0.50;;;0.25;;
49183;SDS011;35021;49.214;12.270;2022-12-24T00:07:32;0.88;;;0.40;;
49183;SDS011;35021;49.214;12.270;2022-12-24T00:09:58;1.83;;;0.50;;
49183;SDS011;35021;49.214;12.270;2022-12-24T00:12:25;1.08;;;0.60;;
49183;SDS011;35021;49.214;12.270;2022-12-24T00:14:52;0.80;;;0.55;;
49183;SDS011;35021;49.214;12.270;2022-12-24T00:17:19;1.63;;;0.90;;
49183;SDS011;35021;49.214;12.270;2022-12-24T00:19:46;1.48;;;0.38;;
49183;SDS011;35021;49.214;12.270;2022-12-24T00:22:12;2.30;;;0.60;;
49183;SDS011;35021;49.214;12.270;2022-12-24T00:24:39;0.60;;;0.38;;
49183;SDS011;35021;49.214;12.270;2022-12-24T00:27:06;0.77;;;0.30;;
49183;SDS011;35021;49.214;12.270;2022-12-24T00:29:33;0.68;;;0.50;;
49183;SDS011;35021;49.214;12.270;2022-12-24T00:32:00;0.75;;;0.32;;
49183;SDS011;35021;49.214;12.270;2022-12-24T00:34:27;1.08;;;0.60;;
49183;SDS011;35021;49.214;12.270;2022-12-24T00:36:54;2.28;;;0.40;;
49183;SDS011;35021;49.214;12.270;2022-12-24T00:39:21;1.80;;;0.40;;
49183;SDS011;35021;49.214;12.270;2022-12-24T00:41:47;1.38;;;0.60;;
49183;SDS011;35021;49.214;12.270;2022-12-24T00:44:14;1.30;;;0.50;;
49183;SDS011;35021;49.214;12.270;2022-12-24T00:46:41;0.95;;;0.50;;
49183;SDS011;35021;49.214;12.270;2022-12-24T00:49:08;0.75;;;0.50;;
49183;SDS011;35021;49.214;12.270;2022-12-24T00:51:37;0.75;;;0.40;;
49183;SDS011;35021;49.214;12.270;2022-12-24T00:54:05;1.88;;;0.60;;
49183;SDS011;35021;49.214;12.270;2022-12-24T00:56:32;1.33;;;0.45;;
49183;SDS011;35021;49.214;12.270;2022-12-24T00:58:59;2.92;;;0.65;;
49183;SDS011;35021;49.214;12.270;2022-12-24T01:01:27;1.55;;;0.60;;
49183;SDS011;35021;49.214;12.270;2022-12-24T01:03:54;1.60;;;0.73;;
49183;SDS011;35021;49.214;12.270;2022-12-24T01:06:42;2.05;;;0.52;;
49183;SDS011;35021;49.214;12.270;2022-12-24T01:09:09;0.55;;;0.30;;
49183;SDS011;35021;49.214;12.270;2022-12-24T01:11:36;1.27;;;0.57;;
49183;SDS011;35021;49.214;12.270;2022-12-24T01:14:03;1.38;;;0.80;;
49183;SDS011;35021;49.214;12.270;2022-12-24T01:16:30;2.58;;;0.73;;
49183;SDS011;35021;49.214;12.270;2022-12-24T01:18:57;2.47;;;0.88;;
49183;SDS011;35021;49.214;12.270;2022-12-24T01:21:24;1.50;;;0.68;;
49183;SDS011;35021;49.214;12.270;2022-12-24T01:23:51;2.88;;;0.80;;
49183;SDS011;35021;49.214;12.270;2022-12-24T01:26:18;1.63;;;0.77;;
49183;SDS011;35021;49.214;12.270;2022-12-24T01:28:45;1.38;;;0.70;;
49183;SDS011;35021;49.214;12.270;2022-12-24T01:31:16;1.85;;;0.80;;
49183;SDS011;35021;49.214;12.270;2022-12-24T01:33:45;1.60;;;0.50;;
49183;SDS011;35021;49.214;12.270;2022-12-24T01:36:14;1.98;;;0.57;;
49183;SDS011;35021;49.214;12.270;2022-12-24T01:38:41;2.00;;;0.77;;
49183;SDS011;35021;49.214;12.270;2022-12-24T01:41:12;2.00;;;0.75;;
49183;SDS011;35021;49.214;12.270;2022-12-24T01:44:18;2.67;;;0.77;;
49183;SDS011;35021;49.214;12.270;2022-12-24T01:49:50;1.95;;;0.70;;
49183;SDS011;35021;49.214;12.270;2022-12-24T01:52:25;1.63;;;0.68;;
49183;SDS011;35021;49.214;12.270;2022-12-24T01:55:00;2.97;;;1.08;;
49183;SDS011;35021;49.214;12.270;2022-12-24T01:57:34;1.98;;;0.60;;
49183;SDS011;35021;49.214;12.270;2022-12-24T02:00:07;1.73;;;0.65;;
49183;SDS011;35021;49.214;12.270;2022-12-24T02:02:36;2.75;;;0.90;;
49183;SDS011;35021;49.214;12.270;2022-12-24T02:05:11;1.67;;;0.70;;
49183;SDS011;35021;49.214;12.270;2022-12-24T02:07:43;2.05;;;0.82;;
49183;SDS011;35021;49.214;12.270;2022-12-24T02:10:12;2.50;;;0.90;;
49183;SDS011;35021;49.214;12.270;2022-12-24T02:12:39;2.85;;;0.82;;
49183;SDS011;35021;49.214;12.270;2022-12-24T02:15:08;1.80;;;0.70;;
49183;SDS011;35021;49.214;12.270;2022-12-24T02:17:46;2.03;;;0.75;;
49183;SDS011;35021;49.214;12.270;2022-12-24T02:23:08;1.88;;;0.60;;
49183;SDS011;35021;49.214;12.270;2022-12-24T02:31:37;1.77;;;0.80;;
49183;SDS011;35021;49.214;12.270;2022-12-24T02:34:14;2.05;;;0.65;;
49183;SDS011;35021;49.214;12.270;2022-12-24T02:39:28;2.28;;;1.00;;
49183;SDS011;35021;49.214;12.270;2022-12-24T02:42:08;1.17;;;0.60;;
49183;SDS011;35021;49.214;12.270;2022-12-24T02:44:44;2.97;;;1.00;;
49183;SDS011;35021;49.214;12.270;2022-12-24T02:47:18;2.03;;;0.75;;
49183;SDS011;35021;49.214;12.270;2022-12-24T02:49:48;2.35;;;0.80;;
49183;SDS011;35021;49.214;12.270;2022-12-24T03:12:49;1.83;;;0.88;;
49183;SDS011;35021;49.214;12.270;2022-12-24T03:15:23;1.20;;;0.60;;
49183;SDS011;35021;49.214;12.270;2022-12-24T03:17:53;2.63;;;0.93;;
49183;SDS011;35021;49.214;12.270;2022-12-24T03:20:31;2.30;;;0.85;;
49183;SDS011;35021;49.214;12.270;2022-12-24T03:23:05;2.47;;;0.73;;
49183;SDS011;35021;49.214;12.270;2022-12-24T03:25:34;3.50;;;1.02;;
49183;SDS011;35021;49.214;12.270;2022-12-24T03:28:05;2.47;;;0.80;;
49183;SDS011;35021;49.214;12.270;2022-12-24T03:30:34;2.53;;;0.82;;
49183;SDS011;35021;49.214;12.270;2022-12-24T03:33:01;1.67;;;0.60;;
49183;SDS011;35021;49.214;12.270;2022-12-24T03:35:28;3.35;;;0.98;;
49183;SDS011;35021;49.214;12.270;2022-12-24T03:37:55;1.85;;;0.80;;
49183;SDS011;35021;49.214;12.270;2022-12-24T03:40:22;2.25;;;0.90;;
49183;SDS011;35021;49.214;12.270;2022-12-24T03:42:51;2.25;;;0.85;;
49183;SDS011;35021;49.214;12.270;2022-12-24T03:45:18;2.40;;;1.00;;
49183;SDS011;35021;49.214;12.270;2022-12-24T03:47:45;2.35;;;0.82;;
49183;SDS011;35021;49.214;12.270;2022-12-24T03:50:12;2.60;;;1.00;;
49183;SDS011;35021;49.214;12.270;2022-12-24T03:52:39;2.22;;;0.90;;
49183;SDS011;35021;49.214;12.270;2022-12-24T03:55:06;2.83;;;1.05;;
49183;SDS011;35021;49.214;12.270;2022-12-24T03:57:33;3.47;;;1.20;;
49183;SDS011;35021;49.214;12.270;2022-12-24T03:59:59;1.85;;;0.85;;
49183;SDS011;35021;49.214;12.270;2022-12-24T04:02:27;5.13;;;1.20;;
49183;SDS011;35021;49.214;12.270;2022-12-24T04:04:54;4.10;;;1.05;;
49183;SDS011;35021;49.214;12.270;2022-12-24T04:07:20;2.92;;;1.10;;
49183;SDS011;35021;49.214;12.270;2022-12-24T04:09:47;2.30;;;0.90;;
49183;SDS011;35021;49.214;12.270;2022-12-24T04:12:14;2.17;;;1.00;;
49183;SDS011;35021;49.214;12.270;2022-12-24T04:14:41;1.98;;;0.77;;
49183;SDS011;35021;49.214;12.270;2022-12-24T04:17:08;1.98;;;0.75;;
49183;SDS011;35021;49.214;12.270;2022-12-24T04:19:35;2.33;;;1.10;;
49183;SDS011;35021;49.214;12.270;2022-12-24T04:22:01;2.53;;;0.80;;
49183;SDS011;35021;49.214;12.270;2022-12-24T04:24:28;2.67;;;0.90;;
49183;SDS011;35021;49.214;12.270;2022-12-24T04:26:55;1.60;;;0.65;;
49183;SDS011;35021;49.214;12.270;2022-12-24T04:29:22;1.90;;;0.80;;
49183;SDS011;35021;49.214;12.270;2022-12-24T04:31:49;2.83;;;0.98;;
49183;SDS011;35021;49.214;12.270;2022-12-24T04:34:16;3.17;;;1.00;;
49183;SDS011;35021;49.214;12.270;2022-12-24T04:36:43;2.85;;;1.00;;
49183;SDS011;35021;49.214;12.270;2022-12-24T04:39:09;2.30;;;0.85;;
49183;SDS011;35021;49.214;12.270;2022-12-24T04:41:36;2.53;;;1.00;;
49183;SDS011;35021;49.214;12.270;2022-12-24T04:44:03;2.22;;;0.85;;
49183;SDS011;35021;49.214;12.270;2022-12-24T04:46:30;3.15;;;1.10;;
49183;SDS011;35021;49.214;12.270;2022-12-24T04:48:57;3.40;;;0.90;;
49183;SDS011;35021;49.214;12.270;2022-12-24T04:51:24;3.30;;;1.00;;
49183;SDS011;35021;49.214;12.270;2022-12-24T04:53:52;2.83;;;0.93;;
49183;SDS011;35021;49.214;12.270;2022-12-24T04:56:21;1.63;;;0.75;;
49183;SDS011;35021;49.214;12.270;2022-12-24T04:58:50;2.78;;;0.85;;
49183;SDS011;35021;49.214;12.270;2022-12-24T05:01:18;2.97;;;1.08;;
49183;SDS011;35021;49.214;12.270;2022-12-24T05:03:47;2.58;;;1.13;;
49183;SDS011;35021;49.214;12.270;2022-12-24T05:06:16;4.25;;;1.17;;
49183;SDS011;35021;49.214;12.270;2022-12-24T05:08:44;3.13;;;1.05;;
49183;SDS011;35021;49.214;12.270;2022-12-24T05:11:12;3.08;;;1.00;;
49183;SDS011;35021;49.214;12.270;2022-12-24T05:13:41;1.98;;;0.90;;
49183;SDS011;35021;49.214;12.270;2022-12-24T05:16:13;2.83;;;1.10;;
49183;SDS011;35021;49.214;12.270;2022-12-24T05:18:41;2.67;;;1.27;;
49183;SDS011;35021;49.214;12.270;2022-12-24T05:21:12;3.05;;;1.05;;
49183;SDS011;35021;49.214;12.270;2022-12-24T05:23:41;2.72;;;0.82;;
49183;SDS011;35021;49.214;12.270;2022-12-24T05:26:29;3.25;;;1.25;;
49183;SDS011;35021;49.214;12.270;2022-12-24T05:28:59;2.95;;;1.00;;
49183;SDS011;35021;49.214;12.270;2022-12-24T05:31:28;3.13;;;1.00;;
49183;SDS011;35021;49.214;12.270;2022-12-24T05:33:56;2.33;;;0.90;;
49183;SDS011;35021;49.214;12.270;2022-12-24T05:36:23;3.10;;;1.20;;
49183;SDS011;35021;49.214;12.270;2022-12-24T05:38:50;3.60;;;1.05;;
49183;SDS011;35021;49.214;12.270;2022-12-24T05:41:18;2.03;;;0.90;;
49183;SDS011;35021;49.214;12.270;2022-12-24T05:43:44;2.47;;;1.05;;
49183;SDS011;35021;49.214;12.270;2022-12-24T05:46:13;1.90;;;0.95;;
49183;SDS011;35021;49.214;12.270;2022-12-24T05:48:41;2.67;;;1.10;;
49183;SDS011;35021;49.214;12.270;2022-12-24T05:51:09;2.67;;;0.95;;
49183;SDS011;35021;49.214;12.270;2022-12-24T05:53:38;2.97;;;1.02;;
49183;SDS011;35021;49.214;12.270;2022-12-24T05:56:06;3.35;;;1.08;;
49183;SDS011;35021;49.214;12.270;2022-12-24T05:58:35;1.67;;;0.80;;
49183;SDS011;35021;49.214;12.270;2022-12-24T06:01:02;3.03;;;0.90;;
49183;SDS011;35021;49.214;12.270;2022-12-24T06:03:30;2.75;;;1.13;;
49183;SDS011;35021;49.214;12.270;2022-12-24T06:06:03;2.47;;;1.00;;
49183;SDS011;35021;49.214;12.270;2022-12-24T06:08:32;3.13;;;1.10;;
49183;SDS011;35021;49.214;12.270;2022-12-24T06:11:00;3.25;;;1.20;;
49183;SDS011;35021;49.214;12.270;2022-12-24T06:13:28;2.03;;;0.82;;
49183;SDS011;35021;49.214;12.270;2022-12-24T06:15:56;1.80;;;1.00;;
49183;SDS011;35021;49.214;12.270;2022-12-24T06:18:25;2.78;;;1.23;;
49183;SDS011;35021;49.214;12.270;2022-12-24T06:20:54;2.33;;;1.20;;
49183;SDS011;35021;49.214;12.270;2022-12-24T06:23:22;1.13;;;0.65;;
49183;SDS011;35021;49.214;12.270;2022-12-24T06:25:49;3.30;;;1.45;;
49183;SDS011;35021;49.214;12.270;2022-12-24T06:28:17;2.88;;;1.10;;
49183;SDS011;35021;49.214;12.270;2022-12-24T06:30:47;2.90;;;0.93;;
49183;SDS011;35021;49.214;12.270;2022-12-24T06:33:16;4.07;;;1.10;;
49183;SDS011;35021;49.214;12.270;2022-12-24T06:35:43;2.53;;;0.90;;
49183;SDS011;35021;49.214;12.270;2022-12-24T06:38:11;2.60;;;0.90;;
49183;SDS011;35021;49.214;12.270;2022-12-24T06:40:39;3.35;;;1.10;;
49183;SDS011;35021;49.214;12.270;2022-12-24T06:43:07;3.53;;;0.95;;
49183;SDS011;35021;49.214;12.270;2022-12-24T06:45:35;2.88;;;1.30;;
49183;SDS011;35021;49.214;12.270;2022-12-24T06:48:02;2.40;;;0.85;;
49183;SDS011;35021;49.214;12.270;2022-12-24T06:50:29;4.95;;;1.30;;
49183;SDS011;35021;49.214;12.270;2022-12-24T06:52:56;2.80;;;1.20;;
49183;SDS011;35021;49.214;12.270;2022-12-24T06:55:22;5.38;;;1.40;;
49183;SDS011;35021;49.214;12.270;2022-12-24T06:57:49;2.85;;;1.15;;
49183;SDS011;35021;49.214;12.270;2022-12-24T07:00:16;2.53;;;1.10;;
49183;SDS011;35021;49.214;12.270;2022-12-24T07:02:43;2.67;;;0.95;;
49183;SDS011;35021;49.214;12.270;2022-12-24T07:05:10;2.90;;;1.25;;
49183;SDS011;35021;49.214;12.270;2022-12-24T07:07:39;3.42;;;1.02;;
49183;SDS011;35021;49.214;12.270;2022-12-24T07:10:14;3.70;;;1.05;;
49183;SDS011;35021;49.214;12.270;2022-12-24T07:12:43;2.30;;;0.93;;
49183;SDS011;35021;49.214;12.270;2022-12-24T07:15:10;3.15;;;1.08;;
49183;SDS011;35021;49.214;12.270;2022-12-24T07:17:37;2.28;;;1.00;;
49183;SDS011;35021;49.214;12.270;2022-12-24T07:20:05;2.50;;;1.00;;
49183;SDS011;35021;49.214;12.270;2022-12-24T07:22:33;4.55;;;1.42;;
49183;SDS011;35021;49.214;12.270;2022-12-24T07:25:00;2.25;;;1.00;;
49183;SDS011;35021;49.214;12.270;2022-12-24T07:27:27;3.40;;;1.63;;
49183;SDS011;35021;49.214;12.270;2022-12-24T07:29:53;3.42;;;0.93;;
49183;SDS011;35021;49.214;12.270;2022-12-24T07:32:20;2.30;;;0.90;;
49183;SDS011;35021;49.214;12.270;2022-12-24T07:34:47;2.97;;;1.15;;
49183;SDS011;35021;49.214;12.270;2022-12-24T07:37:14;3.25;;;1.10;;
49183;SDS011;35021;49.214;12.270;2022-12-24T07:39:41;2.85;;;0.90;;
49183;SDS011;35021;49.214;12.270;2022-12-24T07:42:08;2.10;;;0.82;;
49183;SDS011;35021;49.214;12.270;2022-12-24T07:44:35;3.05;;;1.10;;
49183;SDS011;35021;49.214;12.270;2022-12-24T07:47:02;4.03;;;1.25;;
49183;SDS011;35021;49.214;12.270;2022-12-24T07:49:29;2.17;;;0.90;;
49183;SDS011;35021;49.214;12.270;2022-12-24T07:51:56;4.38;;;1.33;;
49183;SDS011;35021;49.214;12.270;2022-12-24T07:54:22;4.70;;;1.40;;
49183;SDS011;35021;49.214;12.270;2022-12-24T07:56:49;3.95;;;1.10;;
49183;SDS011;35021;49.214;12.270;2022-12-24T07:59:16;4.82;;;1.23;;
49183;SDS011;35021;49.214;12.270;2022-12-24T08:01:43;2.72;;;1.00;;
49183;SDS011;35021;49.214;12.270;2022-12-24T08:04:11;3.20;;;1.02;;
49183;SDS011;35021;49.214;12.270;2022-12-24T08:06:38;3.42;;;1.13;;
49183;SDS011;35021;49.214;12.270;2022-12-24T08:09:05;3.70;;;1.13;;
49183;SDS011;35021;49.214;12.270;2022-12-24T08:11:32;3.80;;;1.50;;
49183;SDS011;35021;49.214;12.270;2022-12-24T08:13:59;2.55;;;0.93;;
49183;SDS011;35021;49.214;12.270;2022-12-24T08:16:26;2.92;;;1.13;;
49183;SDS011;35021;49.214;12.270;2022-12-24T08:18:53;3.20;;;1.08;;
49183;SDS011;35021;49.214;12.270;2022-12-24T08:21:20;4.20;;;1.00;;
49183;SDS011;35021;49.214;12.270;2022-12-24T08:23:46;2.92;;;1.13;;
49183;SDS011;35021;49.214;12.270;2022-12-24T08:26:13;2.92;;;1.10;;
49183;SDS011;35021;49.214;12.270;2022-12-24T08:28:40;2.28;;;1.05;;
49183;SDS011;35021;49.214;12.270;2022-12-24T08:31:07;3.33;;;1.35;;
49183;SDS011;35021;49.214;12.270;2022-12-24T08:33:34;4.20;;;1.20;;
49183;SDS011;35021;49.214;12.270;2022-12-24T08:36:01;4.30;;;1.17;;
49183;SDS011;35021;49.214;12.270;2022-12-24T08:38:29;7.75;;;2.03;;
49183;SDS011;35021;49.214;12.270;2022-12-24T08:40:55;2.90;;;1.30;;
49183;SDS011;35021;49.214;12.270;2022-12-24T08:43:23;3.05;;;1.23;;
49183;SDS011;35021;49.214;12.270;2022-12-24T08:45:52;3.75;;;1.20;;
49183;SDS011;35021;49.214;12.270;2022-12-24T08:48:19;3.25;;;1.40;;
49183;SDS011;35021;49.214;12.270;2022-12-24T08:50:46;4.20;;;1.20;;
49183;SDS011;35021;49.214;12.270;2022-12-24T08:53:13;3.17;;;1.17;;
49183;SDS011;35021;49.214;12.270;2022-12-24T08:55:40;3.50;;;1.20;;
49183;SDS011;35021;49.214;12.270;2022-12-24T08:58:08;3.17;;;1.40;;
49183;SDS011;35021;49.214;12.270;2022-12-24T09:00:35;4.22;;;1.08;;
49183;SDS011;35021;49.214;12.270;2022-12-24T09:03:02;4.03;;;1.10;;
49183;SDS011;35021;49.214;12.270;2022-12-24T09:05:29;5.85;;;1.60;;
49183;SDS011;35021;49.214;12.270;2022-12-24T09:07:56;2.90;;;1.45;;
49183;SDS011;35021;49.214;12.270;2022-12-24T09:10:26;2.33;;;1.05;;
49183;SDS011;35021;49.214;12.270;2022-12-24T09:12:52;3.80;;;1.20;;
49183;SDS011;35021;49.214;12.270;2022-12-24T09:15:19;3.88;;;1.38;;
49183;SDS011;35021;49.214;12.270;2022-12-24T09:17:46;5.90;;;1.67;;
49183;SDS011;35021;49.214;12.270;2022-12-24T09:20:13;4.20;;;1.30;;
49183;SDS011;35021;49.214;12.270;2022-12-24T09:22:40;4.55;;;1.52;;
49183;SDS011;35021;49.214;12.270;2022-12-24T09:25:07;2.55;;;1.10;;
49183;SDS011;35021;49.214;12.270;2022-12-24T09:27:36;3.95;;;1.40;;
49183;SDS011;35021;49.214;12.270;2022-12-24T09:30:03;4.43;;;1.50;;
49183;SDS011;35021;49.214;12.270;2022-12-24T09:32:32;3.53;;;1.30;;
49183;SDS011;35021;49.214;12.270;2022-12-24T09:34:59;4.90;;;1.58;;
49183;SDS011;35021;49.214;12.270;2022-12-24T09:37:26;3.85;;;1.58;;
49183;SDS011;35021;49.214;12.270;2022-12-24T09:39:53;4.93;;;1.77;;
49183;SDS011;35021;49.214;12.270;2022-12-24T09:45:29;5.32;;;1.67;;
49183;SDS011;35021;49.214;12.270;2022-12-24T09:48:08;2.95;;;1.40;;
49183;SDS011;35021;49.214;12.270;2022-12-24T09:53:26;4.28;;;1.52;;
49183;SDS011;35021;49.214;12.270;2022-12-24T09:55:55;5.00;;;1.65;;
49183;SDS011;35021;49.214;12.270;2022-12-24T09:58:26;4.60;;;2.10;;
49183;SDS011;35021;49.214;12.270;2022-12-24T10:00:57;6.20;;;1.98;;
49183;SDS011;35021;49.214;12.270;2022-12-24T10:03:24;5.18;;;1.75;;
49183;SDS011;35021;49.214;12.270;2022-12-24T10:14:14;4.20;;;1.58;;
49183;SDS011;35021;49.214;12.270;2022-12-24T10:22:47;4.85;;;2.28;;
49183;SDS011;35021;49.214;12.270;2022-12-24T10:27:57;7.53;;;3.17;;
49183;SDS011;35021;49.214;12.270;2022-12-24T10:30:27;6.93;;;2.40;;
49183;SDS011;35021;49.214;12.270;2022-12-24T10:32:55;5.22;;;2.20;;
49183;SDS011;35021;49.214;12.270;2022-12-24T10:35:23;5.20;;;1.98;;
49183;SDS011;35021;49.214;12.270;2022-12-24T10:37:57;7.63;;;2.28;;
49183;SDS011;35021;49.214;12.270;2022-12-24T10:40:34;7.15;;;2.10;;
49183;SDS011;35021;49.214;12.270;2022-12-24T10:43:15;5.82;;;2.17;;
49183;SDS011;35021;49.214;12.270;2022-12-24T10:45:52;4.82;;;2.20;;
49183;SDS011;35021;49.214;12.270;2022-12-24T10:48:43;6.90;;;2.13;;
49183;SDS011;35021;49.214;12.270;2022-12-24T10:51:36;5.55;;;1.70;;
49183;SDS011;35021;49.214;12.270;2022-12-24T10:54:10;4.38;;;1.83;;
49183;SDS011;35021;49.214;12.270;2022-12-24T10:56:56;4.75;;;2.00;;
49183;SDS011;35021;49.214;12.270;2022-12-24T10:59:28;5.85;;;2.10;;
49183;SDS011;35021;49.214;12.270;2022-12-24T11:02:23;5.18;;;1.90;;
49183;SDS011;35021;49.214;12.270;2022-12-24T11:04:51;5.70;;;1.58;;
49183;SDS011;35021;49.214;12.270;2022-12-24T11:07:20;4.18;;;1.60;;
49183;SDS011;35021;49.214;12.270;2022-12-24T11:12:28;4.15;;;1.75;;
49183;SDS011;35021;49.214;12.270;2022-12-24T11:15:22;5.15;;;1.75;;
49183;SDS011;35021;49.214;12.270;2022-12-24T11:18:12;4.18;;;1.55;;
49183;SDS011;35021;49.214;12.270;2022-12-24T11:20:40;3.95;;;1.77;;
49183;SDS011;35021;49.214;12.270;2022-12-24T11:23:14;5.22;;;1.83;;
49183;SDS011;35021;49.214;12.270;2022-12-24T11:25:46;3.97;;;1.65;;
49183;SDS011;35021;49.214;12.270;2022-12-24T11:28:26;4.60;;;1.67;;
49183;SDS011;35021;49.214;12.270;2022-12-24T11:31:02;5.35;;;1.83;;
49183;SDS011;35021;49.214;12.270;2022-12-24T11:33:32;5.05;;;1.58;;
49183;SDS011;35021;49.214;12.270;2022-12-24T11:36:12;4.55;;;1.73;;
49183;SDS011;35021;49.214;12.270;2022-12-24T11:38:39;5.18;;;1.77;;
49183;SDS011;35021;49.214;12.270;2022-12-24T11:41:09;4.60;;;1.73;;
49183;SDS011;35021;49.214;12.270;2022-12-24T11:43:41;5.63;;;1.95;;
49183;SDS011;35021;49.214;12.270;2022-12-24T11:46:11;5.15;;;1.67;;
49183;SDS011;35021;49.214;12.270;2022-12-24T11:48:40;3.45;;;1.67;;
49183;SDS011;35021;49.214;12.270;2022-12-24T11:51:18;5.20;;;1.90;;
49183;SDS011;35021;49.214;12.270;2022-12-24T11:56:35;5.13;;;1.92;;
49183;SDS011;35021;49.214;12.270;2022-12-24T11:59:06;5.05;;;1.60;;
49183;SDS011;35021;49.214;12.270;2022-12-24T12:01:49;4.85;;;1.73;;
49183;SDS011;35021;49.214;12.270;2022-12-24T12:04:29;4.38;;;1.45;;
49183;SDS011;35021;49.214;12.270;2022-12-24T12:06:59;3.35;;;1.40;;
49183;SDS011;35021;49.214;12.270;2022-12-24T12:09:41;4.70;;;1.63;;
49183;SDS011;35021;49.214;12.270;2022-12-24T12:12:21;3.65;;;1.52;;
49183;SDS011;35021;49.214;12.270;2022-12-24T12:17:46;5.13;;;1.63;;
49183;SDS011;35021;49.214;12.270;2022-12-24T12:20:29;4.93;;;1.92;;
49183;SDS011;35021;49.214;12.270;2022-12-24T12:23:24;5.20;;;1.77;;
49183;SDS011;35021;49.214;12.270;2022-12-24T12:28:45;5.82;;;1.50;;
49183;SDS011;35021;49.214;12.270;2022-12-24T12:33:53;5.90;;;1.87;;
49183;SDS011;35021;49.214;12.270;2022-12-24T12:36:32;4.65;;;1.70;;
49183;SDS011;35021;49.214;12.270;2022-12-24T12:39:08;3.67;;;1.33;;
49183;SDS011;35021;49.214;12.270;2022-12-24T12:50:02;3.90;;;1.60;;
49183;SDS011;35021;49.214;12.270;2022-12-24T13:01:00;4.35;;;1.50;;
49183;SDS011;35021;49.214;12.270;2022-12-24T13:11:30;3.95;;;1.70;;
49183;SDS011;35021;49.214;12.270;2022-12-24T13:14:19;4.68;;;1.63;;
49183;SDS011;35021;49.214;12.270;2022-12-24T13:20:09;5.13;;;1.60;;
49183;SDS011;35021;49.214;12.270;2022-12-24T13:22:37;4.13;;;1.58;;
49183;SDS011;35021;49.214;12.270;2022-12-24T13:25:04;6.13;;;1.77;;
49183;SDS011;35021;49.214;12.270;2022-12-24T13:27:32;5.07;;;1.75;;
49183;SDS011;35021;49.214;12.270;2022-12-24T13:30:46;3.08;;;1.40;;
49183;SDS011;35021;49.214;12.270;2022-12-24T13:33:06;6.50;;;1.90;;
49183;SDS011;35021;49.214;12.270;2022-12-24T13:35:36;3.35;;;1.42;;
49183;SDS011;35021;49.214;12.270;2022-12-24T13:40:53;3.83;;;1.73;;
49183;SDS011;35021;49.214;12.270;2022-12-24T13:43:21;5.22;;;1.80;;
49183;SDS011;35021;49.214;12.270;2022-12-24T13:45:48;5.05;;;2.00;;
49183;SDS011;35021;49.214;12.270;2022-12-24T13:48:30;4.93;;;1.65;;
49183;SDS011;35021;49.214;12.270;2022-12-24T13:51:16;4.38;;;1.48;;
49183;SDS011;35021;49.214;12.270;2022-12-24T13:58:44;4.20;;;1.35;;
49183;SDS011;35021;49.214;12.270;2022-12-24T14:01:14;3.80;;;1.35;;
49183;SDS011;35021;49.214;12.270;2022-12-24T14:03:48;3.28;;;1.30;;
49183;SDS011;35021;49.214;12.270;2022-12-24T14:09:20;4.90;;;1.40;;
49183;SDS011;35021;49.214;12.270;2022-12-24T14:14:41;4.28;;;1.60;;
49183;SDS011;35021;49.214;12.270;2022-12-24T14:20:06;3.70;;;1.80;;
49183;SDS011;35021;49.214;12.270;2022-12-24T14:22:37;3.38;;;1.52;;
49183;SDS011;35021;49.214;12.270;2022-12-24T14:25:13;4.77;;;2.30;;
49183;SDS011;35021;49.214;12.270;2022-12-24T14:27:44;3.97;;;1.63;;
49183;SDS011;35021;49.214;12.270;2022-12-24T14:30:22;5.30;;;1.60;;
49183;SDS011;35021;49.214;12.270;2022-12-24T14:32:53;5.15;;;1.88;;
49183;SDS011;35021;49.214;12.270;2022-12-24T14:35:22;3.00;;;1.30;;
49183;SDS011;35021;49.214;12.270;2022-12-24T14:38:02;6.00;;;1.77;;
49183;SDS011;35021;49.214;12.270;2022-12-24T14:40:32;4.57;;;1.45;;
49183;SDS011;35021;49.214;12.270;2022-12-24T14:43:04;5.13;;;1.63;;
49183;SDS011;35021;49.214;12.270;2022-12-24T14:45:50;3.33;;;1.50;;
49183;SDS011;35021;49.214;12.270;2022-12-24T14:48:26;3.90;;;1.20;;
49183;SDS011;35021;49.214;12.270;2022-12-24T14:56:13;4.38;;;1.50;;
49183;SDS011;35021;49.214;12.270;2022-12-24T14:58:42;3.90;;;1.67;;
49183;SDS011;35021;49.214;12.270;2022-12-24T15:01:18;3.63;;;1.50;;
49183;SDS011;35021;49.214;12.270;2022-12-24T15:03:59;4.32;;;1.70;;
49183;SDS011;35021;49.214;12.270;2022-12-24T15:06:29;4.38;;;1.58;;
49183;SDS011;35021;49.214;12.270;2022-12-24T15:08:58;4.50;;;1.63;;
49183;SDS011;35021;49.214;12.270;2022-12-24T15:11:26;3.55;;;1.27;;
49183;SDS011;35021;49.214;12.270;2022-12-24T15:13:54;6.00;;;2.20;;
49183;SDS011;35021;49.214;12.270;2022-12-24T15:16:27;4.13;;;1.55;;
49183;SDS011;35021;49.214;12.270;2022-12-24T15:19:03;6.00;;;1.80;;
49183;SDS011;35021;49.214;12.270;2022-12-24T15:21:33;6.30;;;1.83;;
49183;SDS011;35021;49.214;12.270;2022-12-24T15:24:26;5.53;;;1.52;;
49183;SDS011;35021;49.214;12.270;2022-12-24T15:26:54;4.28;;;1.48;;
49183;SDS011;35021;49.214;12.270;2022-12-24T15:29:23;5.25;;;1.70;;
49183;SDS011;35021;49.214;12.270;2022-12-24T15:31:55;5.03;;;2.10;;
49183;SDS011;35021;49.214;12.270;2022-12-24T15:34:34;4.35;;;1.42;;
49183;SDS011;35021;49.214;12.270;2022-12-24T15:39:37;4.20;;;1.80;;
49183;SDS011;35021;49.214;12.270;2022-12-24T15:42:06;3.63;;;1.60;;
49183;SDS011;35021;49.214;12.270;2022-12-24T15:44:46;5.78;;;1.50;;
49183;SDS011;35021;49.214;12.270;2022-12-24T15:47:25;4.63;;;1.73;;
49183;SDS011;35021;49.214;12.270;2022-12-24T15:49:55;5.57;;;1.60;;
49183;SDS011;35021;49.214;12.270;2022-12-24T15:52:22;4.65;;;1.60;;
49183;SDS011;35021;49.214;12.270;2022-12-24T15:54:50;3.78;;;1.63;;
49183;SDS011;35021;49.214;12.270;2022-12-24T15:57:30;4.68;;;1.90;;
49183;SDS011;35021;49.214;12.270;2022-12-24T15:59:59;6.97;;;2.70;;
49183;SDS011;35021;49.214;12.270;2022-12-24T16:02:35;4.03;;;1.55;;
49183;SDS011;35021;49.214;12.270;2022-12-24T16:11:06;4.55;;;1.88;;
49183;SDS011;35021;49.214;12.270;2022-12-24T16:13:29;7.05;;;2.20;;
49183;SDS011;35021;49.214;12.270;2022-12-24T16:16:00;5.90;;;2.30;;
49183;SDS011;35021;49.214;12.270;2022-12-24T16:21:00;4.97;;;2.22;;
49183;SDS011;35021;49.214;12.270;2022-12-24T16:23:36;6.60;;;2.85;;
49183;SDS011;35021;49.214;12.270;2022-12-24T16:26:14;7.20;;;2.67;;
49183;SDS011;35021;49.214;12.270;2022-12-24T16:28:41;5.38;;;2.38;;
49183;SDS011;35021;49.214;12.270;2022-12-24T16:31:14;6.10;;;2.75;;
49183;SDS011;35021;49.214;12.270;2022-12-24T16:33:53;5.55;;;2.60;;
49183;SDS011;35021;49.214;12.270;2022-12-24T16:36:22;4.45;;;2.17;;
49183;SDS011;35021;49.214;12.270;2022-12-24T16:38:49;5.13;;;2.28;;
49183;SDS011;35021;49.214;12.270;2022-12-24T16:41:34;5.17;;;2.57;;
49183;SDS011;35021;49.214;12.270;2022-12-24T16:44:21;4.05;;;2.35;;
49183;SDS011;35021;49.214;12.270;2022-12-24T16:46:48;5.40;;;2.50;;
49183;SDS011;35021;49.214;12.270;2022-12-24T16:49:16;5.22;;;2.50;;
49183;SDS011;35021;49.214;12.270;2022-12-24T16:51:44;5.25;;;3.13;;
49183;SDS011;35021;49.214;12.270;2022-12-24T16:54:12;6.53;;;3.25;;
49183;SDS011;35021;49.214;12.270;2022-12-24T16:56:40;7.50;;;3.78;;
49183;SDS011;35021;49.214;12.270;2022-12-24T16:59:12;5.88;;;3.10;;
49183;SDS011;35021;49.214;12.270;2022-12-24T17:01:44;4.60;;;2.97;;
49183;SDS011;35021;49.214;12.270;2022-12-24T17:04:12;6.60;;;2.90;;